Chalk Butte, South Dakota
Current Conditions -  °F | °C
As of 11:58 AM on Thursday 30 Oct 2014 (Local Time) from KRCA Reporting Station
Clear Clear  
Wind Chill: 51°   Ceiling: Unl
Heat Index: 51°   Visibility: 8mi
Dew Point: 35°   Wind: 13mph
Humidity: 54%   Direction: 40°NE
Pressure: 30.33"   Gusts: NA
Location:  44.653°N, 102.847°W
Report Text: KRCA 301758Z AUTO 04011KT 8SM CLR 11/02 A3033 RMK AO2 SLP287 T01060015 10115 20053 52018 $
Loading
Personal Weather Stations






























Interactive Weather Map
Tropical Storm Tracking
New forecast layout! Learn more

10-Day Weather Forecast

Advertisements
Track Severe Weather on mobile